createdAt,value
2019-02-02T00:01:11.657Z,84.24
2019-02-02T00:03:41.200Z,84.43
2019-02-02T00:06:10.868Z,84.47
2019-02-02T00:08:40.482Z,84.85
2019-02-02T00:11:09.928Z,84.64
2019-02-02T00:13:40.963Z,85.32
2019-02-02T00:16:10.457Z,85.17
2019-02-02T00:18:41.414Z,84.96
2019-02-02T00:21:11.094Z,84.46
2019-02-02T00:23:40.584Z,84.01
2019-02-02T00:26:10.106Z,84.24
2019-02-02T00:28:39.686Z,84.18
2019-02-02T00:31:09.180Z,84.13
2019-02-02T00:33:38.592Z,84.31
2019-02-02T00:36:08.222Z,84.06
2019-02-02T00:38:37.642Z,84.25
2019-02-02T00:41:07.208Z,84.20
2019-02-02T00:43:38.546Z,83.95
2019-02-02T00:46:08.964Z,84.27
2019-02-02T00:48:38.526Z,84.47
2019-02-02T00:51:08.084Z,84.50
2019-02-02T00:53:37.583Z,84.70
2019-02-02T00:56:07.234Z,84.90
2019-02-02T00:58:36.668Z,85.02
2019-02-02T01:01:06.209Z,84.83
2019-02-02T01:03:35.770Z,84.99
2019-02-02T01:06:05.722Z,85.10
2019-02-02T01:08:35.227Z,85.07
2019-02-02T01:11:06.577Z,84.91
2019-02-02T01:13:36.077Z,85.16
2019-02-02T01:16:06.118Z,85.26
2019-02-02T01:18:35.595Z,84.78
2019-02-02T01:21:05.135Z,84.53
2019-02-02T01:23:34.577Z,84.57
2019-02-02T01:26:04.150Z,85.41
2019-02-02T01:28:33.657Z,85.46
2019-02-02T01:31:03.131Z,85.48
2019-02-02T01:33:32.630Z,85.12
2019-02-02T01:36:02.105Z,85.03
2019-02-02T01:38:31.596Z,84.80
2019-02-02T01:41:01.067Z,85.04
2019-02-02T01:43:30.582Z,85.40
2019-02-02T01:46:00.151Z,85.53
2019-02-02T01:48:29.623Z,85.66
2019-02-02T01:50:59.051Z,85.17
2019-02-02T01:53:28.561Z,85.06
2019-02-02T01:55:57.985Z,85.00
2019-02-02T01:58:27.387Z,85.19
2019-02-02T02:00:56.885Z,85.17
2019-02-02T02:03:26.359Z,85.26
2019-02-02T02:05:55.843Z,85.25
2019-02-02T02:08:25.325Z,85.52
2019-02-02T02:10:54.753Z,84.78
2019-02-02T02:13:24.169Z,84.67
2019-02-02T02:15:53.604Z,84.90
2019-02-02T02:18:23.077Z,84.88
2019-02-02T02:20:53.739Z,84.53
2019-02-02T02:23:23.139Z,84.82
2019-02-02T02:25:52.646Z,84.66
2019-02-02T02:28:28.144Z,84.70
2019-02-02T02:30:53.367Z,84.34
2019-02-02T02:33:22.951Z,84.21
2019-02-02T02:35:52.369Z,84.25
2019-02-02T02:38:21.946Z,84.48
2019-02-02T02:40:51.355Z,84.55
2019-02-02T02:43:20.772Z,84.50
2019-02-02T02:45:50.179Z,84.82
2019-02-02T02:48:21.118Z,84.97
2019-02-02T02:50:50.511Z,84.78
2019-02-02T02:53:20.996Z,84.60
2019-02-02T02:55:50.401Z,84.66
2019-02-02T02:58:19.829Z,84.77
2019-02-02T03:00:49.231Z,84.87
2019-02-02T03:03:18.669Z,85.14
2019-02-02T03:05:48.126Z,85.05
2019-02-02T03:08:17.618Z,84.91
2019-02-02T03:10:47.080Z,84.80
2019-02-02T03:13:16.524Z,84.68
2019-02-02T03:15:45.902Z,84.60
2019-02-02T03:18:15.314Z,84.72
2019-02-02T03:20:44.710Z,84.98
2019-02-02T03:23:14.139Z,85.26
2019-02-02T03:25:43.612Z,85.48
2019-02-02T03:28:13.099Z,85.19
2019-02-02T03:30:42.503Z,85.44
2019-02-02T03:33:12.028Z,85.35
2019-02-02T03:35:41.523Z,85.44
2019-02-02T03:38:10.895Z,85.46
2019-02-02T03:40:40.303Z,85.54
2019-02-02T03:43:09.856Z,85.69
2019-02-02T03:45:40.690Z,85.90
2019-02-02T03:48:10.631Z,85.77
2019-02-02T03:50:40.103Z,85.79
2019-02-02T03:53:09.660Z,85.61
2019-02-02T03:55:39.062Z,85.52
2019-02-02T03:58:08.543Z,85.59
2019-02-02T04:00:38.018Z,85.18
2019-02-02T04:03:07.504Z,85.21
2019-02-02T04:05:36.904Z,85.20
2019-02-02T04:08:06.478Z,85.34
2019-02-02T04:10:35.875Z,85.60
2019-02-02T04:13:05.434Z,84.86
2019-02-02T04:15:34.984Z,84.59
2019-02-02T04:18:04.553Z,84.66
2019-02-02T04:20:34.919Z,84.49
2019-02-02T04:23:04.412Z,84.35
2019-02-02T04:25:33.804Z,84.32
2019-02-02T04:28:03.291Z,84.37
2019-02-02T04:30:32.695Z,84.30
2019-02-02T04:33:02.115Z,84.37
2019-02-02T04:35:31.520Z,84.82
2019-02-02T04:38:00.933Z,85.09
2019-02-02T04:40:30.344Z,84.31
2019-02-02T04:43:01.696Z,84.50
2019-02-02T04:45:30.879Z,85.00
2019-02-02T04:48:00.362Z,84.93
2019-02-02T04:50:29.767Z,85.05
2019-02-02T04:52:59.215Z,84.93
2019-02-02T04:55:28.755Z,84.97
2019-02-02T04:57:58.248Z,84.90
2019-02-02T05:00:28.194Z,84.62
2019-02-02T05:02:57.619Z,84.75
2019-02-02T05:05:27.009Z,84.58
2019-02-02T05:07:56.501Z,84.81
2019-02-02T05:10:26.339Z,85.43
2019-02-02T05:12:55.759Z,85.35
2019-02-02T05:15:25.169Z,85.52
2019-02-02T05:17:54.648Z,85.93
2019-02-02T05:20:24.129Z,85.72
2019-02-02T05:22:53.652Z,85.54
2019-02-02T05:25:23.104Z,85.90
2019-02-02T05:27:52.509Z,86.00
2019-02-02T05:30:24.859Z,85.48
2019-02-02T05:32:54.256Z,84.85
2019-02-02T05:35:23.783Z,84.93
2019-02-02T05:37:53.313Z,84.93
2019-02-02T05:40:24.018Z,84.56
2019-02-02T05:42:53.557Z,84.87
2019-02-02T05:45:24.022Z,85.02
2019-02-02T05:47:53.427Z,85.17
2019-02-02T05:50:23.835Z,85.37
2019-02-02T05:52:53.418Z,85.61
2019-02-02T05:55:23.687Z,85.88
2019-02-02T05:57:53.169Z,86.02
2019-02-02T06:00:34.906Z,85.91
2019-02-02T06:03:04.684Z,85.84
2019-02-02T06:05:34.166Z,85.63
2019-02-02T06:08:03.641Z,85.81
2019-02-02T06:10:33.057Z,85.23
2019-02-02T06:13:02.531Z,84.08
2019-02-02T06:15:32.093Z,84.17
2019-02-02T06:18:01.561Z,84.33
2019-02-02T06:20:30.975Z,84.76
2019-02-02T06:23:00.380Z,84.97
2019-02-02T06:25:30.182Z,84.89
2019-02-02T06:27:59.577Z,84.23
2019-02-02T06:30:30.033Z,84.17
2019-02-02T06:32:59.455Z,84.00
2019-02-02T06:35:29.007Z,83.85
2019-02-02T06:37:58.486Z,83.90
2019-02-02T06:40:27.919Z,84.40
2019-02-02T06:42:57.403Z,84.05
2019-02-02T06:45:32.382Z,84.08
2019-02-02T06:48:01.849Z,83.98
2019-02-02T06:50:31.332Z,84.69
2019-02-02T06:53:01.487Z,84.94
2019-02-02T06:55:30.983Z,84.90
2019-02-02T06:58:00.441Z,84.89
2019-02-02T07:00:31.009Z,84.87
2019-02-02T07:03:00.419Z,84.78
2019-02-02T07:05:29.943Z,84.47
2019-02-02T07:07:59.391Z,84.42
2019-02-02T07:10:29.967Z,84.47
2019-02-02T07:12:59.374Z,84.81
2019-02-02T07:15:30.534Z,84.86
2019-02-02T07:17:59.994Z,85.05
2019-02-02T07:20:29.420Z,84.95
2019-02-02T07:23:01.597Z,85.25
2019-02-02T07:25:31.091Z,84.91
2019-02-02T07:28:00.485Z,85.32
2019-02-02T07:30:29.985Z,85.35
2019-02-02T07:32:59.548Z,85.11
2019-02-02T07:35:29.133Z,84.77
2019-02-02T07:37:58.613Z,84.69
2019-02-02T07:40:28.031Z,85.22
2019-02-02T07:42:57.453Z,84.88
2019-02-02T07:45:31.572Z,84.74
2019-02-02T07:48:00.981Z,85.00
2019-02-02T07:50:30.481Z,85.34
2019-02-02T07:52:59.968Z,85.15
2019-02-02T07:55:29.393Z,86.00
2019-02-02T07:57:58.790Z,85.78
2019-02-02T08:00:40.721Z,86.12
2019-02-02T08:03:04.971Z,85.66
2019-02-02T08:05:34.494Z,85.52
2019-02-02T08:08:04.735Z,85.20
2019-02-02T08:10:34.231Z,85.29
2019-02-02T08:13:04.521Z,85.38
2019-02-02T08:15:34.817Z,85.68
2019-02-02T08:18:05.363Z,86.09
2019-02-02T08:20:34.799Z,85.94
2019-02-02T08:23:04.663Z,86.05
2019-02-02T08:25:34.147Z,85.92
2019-02-02T08:28:03.919Z,86.02
2019-02-02T08:30:35.768Z,86.67
2019-02-02T08:33:06.439Z,86.10
2019-02-02T08:35:35.993Z,85.99
2019-02-02T08:38:05.953Z,85.66
2019-02-02T08:40:35.442Z,85.50
2019-02-02T08:43:05.103Z,85.38
2019-02-02T08:45:34.582Z,85.05
2019-02-02T08:48:04.051Z,85.47
2019-02-02T08:50:35.612Z,85.74
2019-02-02T08:53:08.209Z,85.21
2019-02-02T08:55:37.662Z,85.09
2019-02-02T08:58:07.117Z,84.96
2019-02-02T09:00:36.672Z,84.48
2019-02-02T09:03:06.248Z,84.81
2019-02-02T09:05:35.860Z,83.40
2019-02-02T09:08:05.390Z,83.31
2019-02-02T09:10:34.789Z,83.80
2019-02-02T09:13:04.693Z,83.76
2019-02-02T09:15:34.248Z,83.65
2019-02-02T09:18:03.743Z,83.67
2019-02-02T09:20:33.160Z,83.51
2019-02-02T09:23:06.445Z,83.69
2019-02-02T09:25:33.830Z,84.11
2019-02-02T09:28:04.370Z,83.74
2019-02-02T09:30:35.710Z,84.64
2019-02-02T09:33:05.878Z,84.70
2019-02-02T09:35:35.337Z,84.79
2019-02-02T09:38:05.506Z,84.78
2019-02-02T09:40:34.982Z,84.39
2019-02-02T09:43:04.864Z,83.82
2019-02-02T09:45:34.280Z,84.25
2019-02-02T09:48:04.086Z,83.85
2019-02-02T09:50:33.607Z,84.13
2019-02-02T09:53:03.458Z,84.43
2019-02-02T09:55:33.376Z,84.21
2019-02-02T09:58:08.556Z,83.87
2019-02-02T10:00:37.681Z,83.76
2019-02-02T10:03:07.428Z,83.72
2019-02-02T10:05:36.929Z,83.55
2019-02-02T10:08:06.568Z,83.78
2019-02-02T10:10:35.973Z,83.95
2019-02-02T10:13:06.728Z,84.31
2019-02-02T10:15:37.278Z,84.07
2019-02-02T10:18:10.000Z,84.30
2019-02-02T10:20:39.480Z,84.89
2019-02-02T10:23:08.965Z,84.64
2019-02-02T10:25:38.390Z,84.57
2019-02-02T10:28:07.873Z,84.71
2019-02-02T10:30:39.864Z,85.00
2019-02-02T10:33:09.725Z,85.25
2019-02-02T10:35:39.390Z,85.76
2019-02-02T10:38:08.930Z,86.11
2019-02-02T10:40:38.577Z,86.04
2019-02-02T10:43:09.519Z,85.92
2019-02-02T10:45:39.038Z,85.92
2019-02-02T10:48:08.566Z,85.59
2019-02-02T10:50:38.120Z,85.33
2019-02-02T10:53:07.806Z,85.42
2019-02-02T10:55:37.359Z,85.75
2019-02-02T10:58:07.090Z,85.65
2019-02-02T11:00:39.791Z,85.54
2019-02-02T11:03:09.512Z,85.43
2019-02-02T11:05:41.801Z,85.84
2019-02-02T11:08:11.383Z,85.81
2019-02-02T11:10:41.133Z,86.27
2019-02-02T11:13:10.754Z,86.27
2019-02-02T11:15:40.349Z,86.33
2019-02-02T11:18:09.938Z,86.61
2019-02-02T11:20:39.602Z,87.19
2019-02-02T11:23:10.758Z,86.72
2019-02-02T11:25:40.255Z,87.01
2019-02-02T11:28:09.726Z,86.58
2019-02-02T11:30:39.367Z,86.39
2019-02-02T11:33:08.982Z,86.10
2019-02-02T11:35:38.417Z,86.12
2019-02-02T11:38:07.915Z,86.44
2019-02-02T11:40:37.401Z,86.31
2019-02-02T11:43:07.048Z,86.03
2019-02-02T11:45:36.563Z,86.21
2019-02-02T11:48:06.565Z,86.11
2019-02-02T11:50:35.969Z,86.06
2019-02-02T11:53:05.651Z,85.65
2019-02-02T11:55:35.059Z,86.14
2019-02-02T11:58:04.713Z,86.54
2019-02-02T12:00:57.645Z,86.57
2019-02-02T12:03:27.062Z,86.35
2019-02-02T12:05:56.631Z,86.57
2019-02-02T12:08:26.057Z,86.45
2019-02-02T12:10:56.532Z,86.50
2019-02-02T12:13:26.009Z,85.93
2019-02-02T12:15:55.437Z,86.21
2019-02-02T12:18:24.921Z,86.67
2019-02-02T12:20:54.340Z,86.37
2019-02-02T12:23:23.994Z,86.72
2019-02-02T12:25:53.429Z,86.50
2019-02-02T12:28:23.031Z,86.52
2019-02-02T12:30:52.607Z,86.64
2019-02-02T12:33:22.092Z,86.59
2019-02-02T12:35:51.671Z,86.08
2019-02-02T12:38:21.114Z,86.21
2019-02-02T12:40:50.621Z,86.33
2019-02-02T12:43:20.197Z,86.63
2019-02-02T12:45:50.293Z,86.85
2019-02-02T12:48:19.794Z,86.80
2019-02-02T12:50:49.381Z,86.73
2019-02-02T12:53:19.094Z,86.86
2019-02-02T12:55:48.653Z,86.72
2019-02-02T12:58:18.703Z,86.51
2019-02-02T13:00:48.267Z,86.66
2019-02-02T13:03:17.793Z,86.48
2019-02-02T13:05:48.356Z,86.34
2019-02-02T13:08:17.932Z,86.31
2019-02-02T13:10:47.935Z,85.74
2019-02-02T13:13:17.969Z,85.89
2019-02-02T13:15:47.394Z,86.19
2019-02-02T13:18:16.893Z,86.55
2019-02-02T13:20:46.460Z,86.82
2019-02-02T13:23:15.904Z,86.54
2019-02-02T13:25:45.534Z,86.58
2019-02-02T13:28:15.110Z,86.46
2019-02-02T13:30:44.538Z,86.52
2019-02-02T13:33:13.973Z,86.71
2019-02-02T13:35:43.451Z,86.30
2019-02-02T13:38:12.875Z,85.81
2019-02-02T13:40:42.549Z,85.78
2019-02-02T13:43:12.090Z,85.22
2019-02-02T13:45:41.615Z,86.14
2019-02-02T13:48:11.217Z,86.40
2019-02-02T13:50:40.776Z,86.27
2019-02-02T13:53:11.389Z,86.34
2019-02-02T13:55:41.383Z,86.42
2019-02-02T13:58:11.436Z,86.72
2019-02-02T14:00:40.941Z,87.00
2019-02-02T14:03:10.413Z,86.95
2019-02-02T14:05:40.268Z,87.19
2019-02-02T14:08:09.989Z,87.12
2019-02-02T14:10:39.847Z,87.47
2019-02-02T14:13:09.493Z,87.90
2019-02-02T14:15:39.545Z,87.56
2019-02-02T14:18:09.260Z,87.58
2019-02-02T14:20:38.836Z,87.09
2019-02-02T14:23:08.385Z,86.90
2019-02-02T14:25:38.080Z,87.08
2019-02-02T14:28:07.886Z,87.35
2019-02-02T14:30:38.733Z,87.42
2019-02-02T14:33:14.134Z,87.74
2019-02-02T14:35:39.450Z,87.61
2019-02-02T14:38:08.966Z,87.90
2019-02-02T14:40:38.468Z,87.72
2019-02-02T14:43:07.872Z,87.30
2019-02-02T14:45:37.372Z,87.40
2019-02-02T14:48:06.851Z,87.37
2019-02-02T14:50:36.385Z,87.68
2019-02-02T14:53:05.935Z,87.86
2019-02-02T14:55:35.757Z,87.25
2019-02-02T14:58:06.008Z,87.22
2019-02-02T15:00:35.482Z,87.13
2019-02-02T15:03:05.282Z,87.10
2019-02-02T15:05:42.681Z,86.88
2019-02-02T15:08:05.884Z,86.45
2019-02-02T15:10:35.292Z,86.60
2019-02-02T15:13:04.966Z,86.95
2019-02-02T15:15:34.525Z,86.79
2019-02-02T15:18:04.033Z,86.84
2019-02-02T15:20:35.484Z,87.03
2019-02-02T15:23:06.332Z,86.94
2019-02-02T15:25:35.887Z,87.13
2019-02-02T15:28:05.524Z,87.26
2019-02-02T15:30:36.682Z,87.35
2019-02-02T15:33:06.651Z,87.52
2019-02-02T15:35:36.283Z,87.75
2019-02-02T15:38:06.049Z,87.87
2019-02-02T15:40:35.497Z,87.89
2019-02-02T15:43:05.301Z,88.09
2019-02-02T15:45:34.856Z,88.14
2019-02-02T15:48:04.752Z,88.25
2019-02-02T15:50:34.300Z,87.88
2019-02-02T15:53:03.754Z,87.97
2019-02-02T15:55:33.232Z,88.07
2019-02-02T15:58:02.786Z,88.10
2019-02-02T16:00:38.845Z,88.22
2019-02-02T16:03:16.378Z,88.29
2019-02-02T16:05:45.817Z,88.51
2019-02-02T16:08:15.489Z,88.53
2019-02-02T16:10:45.020Z,88.42
2019-02-02T16:13:17.401Z,88.57
2019-02-02T16:15:47.119Z,88.74
2019-02-02T16:18:16.620Z,88.69
2019-02-02T16:20:46.189Z,88.66
2019-02-02T16:23:15.663Z,88.79
2019-02-02T16:25:45.246Z,88.99
2019-02-02T16:28:14.653Z,89.09
2019-02-02T16:30:44.085Z,89.08
2019-02-02T16:33:13.575Z,89.03
2019-02-02T16:35:43.074Z,89.15
2019-02-02T16:38:12.825Z,88.87
2019-02-02T16:40:42.402Z,88.81
2019-02-02T16:43:11.815Z,88.74
2019-02-02T16:45:44.336Z,88.82
2019-02-02T16:48:13.823Z,88.87
2019-02-02T16:50:43.279Z,88.79
2019-02-02T16:53:12.757Z,88.82
2019-02-02T16:55:42.265Z,89.01
2019-02-02T16:58:12.729Z,89.03
2019-02-02T17:00:42.243Z,88.98
2019-02-02T17:03:11.671Z,88.94
2019-02-02T17:05:41.131Z,88.92
2019-02-02T17:08:10.620Z,89.01
2019-02-02T17:10:40.323Z,88.96
2019-02-02T17:13:09.815Z,88.99
2019-02-02T17:15:39.238Z,88.59
2019-02-02T17:18:08.729Z,88.63
2019-02-02T17:20:40.187Z,88.55
2019-02-02T17:23:09.679Z,88.54
2019-02-02T17:25:39.241Z,88.31
2019-02-02T17:28:09.069Z,88.40
2019-02-02T17:30:39.533Z,88.45
2019-02-02T17:33:13.296Z,88.36
2019-02-02T17:35:43.959Z,88.22
2019-02-02T17:38:13.482Z,88.13
2019-02-02T17:40:43.303Z,87.98
2019-02-02T17:43:12.733Z,88.41
2019-02-02T17:45:42.225Z,88.49
2019-02-02T17:48:13.229Z,88.70
2019-02-02T17:50:42.946Z,88.60
2019-02-02T17:53:13.557Z,88.38
2019-02-02T17:55:42.969Z,88.41
2019-02-02T17:58:13.472Z,88.52
2019-02-02T18:00:50.750Z,88.77
2019-02-02T18:03:20.395Z,88.91
2019-02-02T18:05:50.195Z,88.89
2019-02-02T18:08:19.781Z,88.84
2019-02-02T18:10:49.335Z,88.84
2019-02-02T18:13:18.882Z,88.65
2019-02-02T18:15:48.437Z,88.59
2019-02-02T18:18:18.033Z,88.47
2019-02-02T18:20:47.447Z,88.86
2019-02-02T18:23:18.311Z,89.10
2019-02-02T18:25:48.141Z,88.96
2019-02-02T18:28:17.560Z,88.70
2019-02-02T18:30:46.984Z,88.70
2019-02-02T18:33:16.484Z,88.89
2019-02-02T18:35:45.895Z,88.89
2019-02-02T18:38:15.369Z,88.86
2019-02-02T18:40:44.952Z,88.90
2019-02-02T18:43:14.373Z,88.95
2019-02-02T18:45:43.873Z,89.23
2019-02-02T18:48:13.422Z,89.41
2019-02-02T18:50:42.865Z,89.35
2019-02-02T18:53:12.271Z,89.34
2019-02-02T18:55:44.960Z,89.52
2019-02-02T18:58:14.523Z,89.51
2019-02-02T19:00:43.970Z,89.41
2019-02-02T19:03:13.466Z,89.41
2019-02-02T19:05:42.993Z,89.69
2019-02-02T19:08:12.441Z,89.93
2019-02-02T19:10:42.715Z,89.92
2019-02-02T19:13:12.203Z,89.71
2019-02-02T19:15:41.707Z,89.61
2019-02-02T19:18:11.192Z,89.69
2019-02-02T19:20:40.696Z,89.93
2019-02-02T19:23:10.188Z,90.00
2019-02-02T19:25:39.594Z,89.52
2019-02-02T19:28:09.368Z,89.51
2019-02-02T19:30:39.914Z,89.35
2019-02-02T19:33:10.597Z,89.40
2019-02-02T19:35:40.045Z,89.70
2019-02-02T19:38:09.931Z,89.80
2019-02-02T19:40:40.458Z,89.83
2019-02-02T19:43:10.842Z,89.40
2019-02-02T19:45:41.927Z,89.50
2019-02-02T19:48:11.610Z,89.70
2019-02-02T19:50:41.102Z,89.66
2019-02-02T19:53:11.170Z,89.81
2019-02-02T19:55:40.530Z,89.57
2019-02-02T19:58:10.023Z,89.78
2019-02-02T20:00:39.505Z,89.98
2019-02-02T20:03:09.203Z,90.22
2019-02-02T20:05:38.762Z,90.36
2019-02-02T20:08:08.276Z,90.37
2019-02-02T20:10:37.780Z,90.48
2019-02-02T20:13:07.358Z,90.53
2019-02-02T20:15:36.786Z,90.59
2019-02-02T20:18:09.899Z,90.56
2019-02-02T20:20:37.824Z,90.55
2019-02-02T20:23:07.418Z,90.69
2019-02-02T20:25:36.909Z,90.68
2019-02-02T20:28:06.563Z,90.63
2019-02-02T20:30:36.018Z,90.21
2019-02-02T20:33:05.790Z,90.27
2019-02-02T20:35:42.026Z,90.36
2019-02-02T20:38:06.499Z,89.97
2019-02-02T20:40:35.947Z,89.64
2019-02-02T20:43:05.672Z,89.57
2019-02-02T20:45:37.260Z,89.64
2019-02-02T20:48:06.841Z,89.55
2019-02-02T20:50:36.278Z,89.75
2019-02-02T20:53:06.006Z,90.03
2019-02-02T20:55:39.758Z,90.01
2019-02-02T20:58:09.371Z,89.75
2019-02-02T21:00:38.994Z,89.93
2019-02-02T21:03:08.484Z,90.04
2019-02-02T21:05:37.952Z,90.11
2019-02-02T21:08:07.786Z,90.05
2019-02-02T21:10:37.232Z,90.21
2019-02-02T21:13:07.672Z,90.00
2019-02-02T21:15:37.096Z,89.89
2019-02-02T21:18:06.674Z,90.07
2019-02-02T21:20:36.434Z,90.11
2019-02-02T21:23:06.088Z,90.01
2019-02-02T21:25:35.575Z,90.13
2019-02-02T21:28:08.187Z,90.05
2019-02-02T21:30:37.611Z,90.07
2019-02-02T21:33:07.400Z,90.25
2019-02-02T21:35:36.845Z,90.28
2019-02-02T21:38:06.708Z,90.26
2019-02-02T21:40:36.372Z,90.13
2019-02-02T21:43:06.721Z,90.07
2019-02-02T21:48:30.863Z,89.87
2019-02-02T21:51:00.315Z,89.65
2019-02-02T21:53:29.750Z,89.73
2019-02-02T21:55:59.196Z,89.72
2019-02-02T21:58:28.707Z,89.61
2019-02-02T22:00:58.137Z,89.62
2019-02-02T22:03:27.564Z,89.79
2019-02-02T22:05:57.013Z,89.92
2019-02-02T22:08:26.611Z,90.08
2019-02-02T22:10:56.043Z,90.11
2019-02-02T22:13:25.553Z,90.17
2019-02-02T22:15:55.048Z,90.07
2019-02-02T22:18:24.488Z,89.47
2019-02-02T22:20:55.113Z,89.56
2019-02-02T22:23:24.692Z,89.59
2019-02-02T22:25:54.269Z,89.27
2019-02-02T22:28:23.783Z,89.48
2019-02-02T22:30:53.209Z,89.61
2019-02-02T22:33:23.146Z,89.48
2019-02-02T22:35:52.587Z,89.62
2019-02-02T22:38:22.041Z,89.59
2019-02-02T22:40:51.538Z,89.57
2019-02-02T22:43:21.023Z,89.83
2019-02-02T22:45:50.542Z,89.62
2019-02-02T22:48:20.037Z,89.43
2019-02-02T22:50:49.550Z,89.46
2019-02-02T22:53:18.965Z,89.78
2019-02-02T22:55:48.499Z,89.85
2019-02-02T22:58:17.922Z,90.05
2019-02-02T23:01:04.425Z,90.08
2019-02-02T23:03:37.831Z,90.12
2019-02-02T23:06:38.873Z,89.85
2019-02-02T23:09:21.938Z,89.61
2019-02-02T23:12:05.122Z,89.69
2019-02-02T23:14:57.356Z,89.56
2019-02-02T23:17:26.777Z,89.30
2019-02-02T23:20:00.587Z,88.78
2019-02-02T23:22:29.961Z,88.90
2019-02-02T23:24:59.378Z,89.04
2019-02-02T23:27:28.802Z,89.10
2019-02-02T23:29:58.233Z,89.16
2019-02-02T23:32:27.660Z,89.29
2019-02-02T23:34:57.171Z,89.24
2019-02-02T23:37:26.588Z,89.24
2019-02-02T23:39:56.035Z,89.20
2019-02-02T23:42:26.612Z,89.34
2019-02-02T23:44:56.184Z,89.10
2019-02-02T23:47:25.707Z,89.29
2019-02-02T23:49:55.166Z,89.19
2019-02-02T23:52:24.648Z,89.15
2019-02-02T23:54:54.197Z,88.72
2019-02-02T23:57:23.893Z,88.81
2019-02-02T23:59:53.576Z,88.78
